createdAt,value
2023-02-19T00:05:01.856Z,3.92
2023-02-19T00:11:04.278Z,3.30
2023-02-19T00:17:05.764Z,3.47
2023-02-19T00:23:07.279Z,3.58
2023-02-19T00:29:12.113Z,3.40
2023-02-19T00:35:13.654Z,3.60
2023-02-19T00:41:21.159Z,3.47
2023-02-19T00:47:22.834Z,3.67
2023-02-19T00:53:24.276Z,3.47
2023-02-19T00:59:25.738Z,3.67
2023-02-19T01:05:27.186Z,3.97
2023-02-19T01:11:29.109Z,4.33
2023-02-19T01:17:30.613Z,5.00
2023-02-19T01:23:32.098Z,5.80
2023-02-19T01:29:33.561Z,5.68
2023-02-19T01:35:38.218Z,5.50
2023-02-19T01:41:40.432Z,4.87
2023-02-19T01:47:41.938Z,4.60
2023-02-19T01:53:45.066Z,4.47
2023-02-19T01:59:47.801Z,4.35
2023-02-19T02:06:15.632Z,3.97
2023-02-19T02:12:17.175Z,5.17
2023-02-19T02:18:28.051Z,4.03
2023-02-19T02:24:32.516Z,4.00
2023-02-19T02:30:37.805Z,3.38
2023-02-19T02:36:41.303Z,2.65
2023-02-19T02:42:45.326Z,1.93
2023-02-19T02:48:53.857Z,1.48
2023-02-19T02:55:04.881Z,1.50
2023-02-19T03:01:33.104Z,0.93
2023-02-19T03:07:58.147Z,1.27
2023-02-19T03:14:21.645Z,1.20
2023-02-19T03:20:24.122Z,1.05
2023-02-19T03:26:26.256Z,1.07
2023-02-19T03:32:36.328Z,0.88
2023-02-19T03:38:42.368Z,1.00
2023-02-19T03:44:58.622Z,0.70
2023-02-19T03:51:05.334Z,0.88
2023-02-19T03:57:10.855Z,0.90
2023-02-19T04:03:32.071Z,0.63
2023-02-19T04:09:37.335Z,0.60
2023-02-19T04:15:45.186Z,0.70
2023-02-19T04:21:46.675Z,1.17
2023-02-19T04:27:48.560Z,0.90
2023-02-19T04:33:50.020Z,0.90
2023-02-19T04:39:51.508Z,1.08
2023-02-19T04:45:53.012Z,0.90
2023-02-19T04:51:54.497Z,0.60
2023-02-19T04:57:55.934Z,0.50
2023-02-19T05:03:57.603Z,0.40
2023-02-19T05:09:59.718Z,0.30
2023-02-19T05:16:02.338Z,0.50
2023-02-19T05:22:03.818Z,0.70
2023-02-19T05:28:17.362Z,0.87
2023-02-19T05:34:18.839Z,1.30
2023-02-19T05:40:20.281Z,1.23
2023-02-19T05:46:22.977Z,3.23
2023-02-19T05:52:24.864Z,4.15
2023-02-19T05:58:26.570Z,1.90
2023-02-19T06:04:28.023Z,1.52
2023-02-19T06:10:29.497Z,1.67
2023-02-19T06:16:33.178Z,1.50
2023-02-19T06:22:34.666Z,1.60
2023-02-19T06:28:36.726Z,1.60
2023-02-19T06:34:38.170Z,1.60
2023-02-19T06:40:39.626Z,1.60
2023-02-19T06:46:41.195Z,1.90
2023-02-19T06:52:42.705Z,2.00
2023-02-19T06:58:44.185Z,1.70
2023-02-19T07:04:45.658Z,1.33
2023-02-19T07:10:54.520Z,1.80
2023-02-19T07:16:55.960Z,1.70
2023-02-19T07:22:57.486Z,1.50
2023-02-19T07:28:58.998Z,2.20
2023-02-19T07:35:00.465Z,2.30
2023-02-19T07:41:02.687Z,2.33
2023-02-19T07:47:04.165Z,2.80
2023-02-19T07:53:05.866Z,3.15
2023-02-19T07:59:07.343Z,2.80
2023-02-19T08:05:08.865Z,2.90
2023-02-19T08:11:28.881Z,2.67
2023-02-19T08:17:31.147Z,2.20
2023-02-19T08:23:32.801Z,2.58
2023-02-19T08:29:34.980Z,2.40
2023-02-19T08:35:36.672Z,2.17
2023-02-19T08:41:38.551Z,2.30
2023-02-19T08:47:40.142Z,1.77
2023-02-19T08:53:41.674Z,1.60
2023-02-19T08:59:43.130Z,1.17
2023-02-19T09:05:47.041Z,1.23
2023-02-19T09:11:49.386Z,1.02
2023-02-19T09:17:51.864Z,1.30
2023-02-19T09:23:53.391Z,1.30
2023-02-19T09:29:55.036Z,1.77
2023-02-19T09:35:58.654Z,2.65
2023-02-19T09:42:09.650Z,2.00
2023-02-19T09:48:12.019Z,2.23
2023-02-19T09:54:17.338Z,1.88
2023-02-19T10:00:26.392Z,1.60
2023-02-19T10:06:29.795Z,1.60
2023-02-19T10:12:31.975Z,1.45
2023-02-19T10:18:39.099Z,1.77
2023-02-19T10:24:41.809Z,1.77
2023-02-19T10:30:43.325Z,2.97
2023-02-19T10:36:47.272Z,2.33
2023-02-19T10:42:49.780Z,1.85
2023-02-19T10:49:02.094Z,2.30
2023-02-19T10:55:18.849Z,2.65
2023-02-19T11:01:21.505Z,2.83
2023-02-19T11:07:23.026Z,2.00
2023-02-19T11:13:27.733Z,2.47
2023-02-19T11:19:31.844Z,2.10
2023-02-19T11:25:33.658Z,1.67
2023-02-19T11:31:36.080Z,1.40
2023-02-19T11:37:51.692Z,1.38
2023-02-19T11:44:03.515Z,1.70
2023-02-19T11:50:14.383Z,1.80
2023-02-19T11:56:18.108Z,2.20
2023-02-19T12:02:24.485Z,3.03
2023-02-19T12:08:35.334Z,2.28
2023-02-19T12:14:58.673Z,2.30
2023-02-19T12:21:18.940Z,1.70
2023-02-19T12:27:25.648Z,1.40
2023-02-19T12:33:42.092Z,1.40
2023-02-19T12:40:13.385Z,1.10
2023-02-19T12:46:20.484Z,1.15
2023-02-19T12:52:24.814Z,0.90
2023-02-19T12:58:29.282Z,1.20
2023-02-19T13:04:46.034Z,0.97
2023-02-19T13:10:59.364Z,1.13
2023-02-19T13:17:04.994Z,1.80
2023-02-19T13:23:43.916Z,2.87
2023-02-19T13:29:53.595Z,1.45
2023-02-19T13:36:05.816Z,1.50
2023-02-19T13:42:18.193Z,1.00
2023-02-19T13:48:27.823Z,0.93
2023-02-19T13:54:39.938Z,1.10
2023-02-19T14:00:49.449Z,1.13
2023-02-19T14:07:03.060Z,1.00
2023-02-19T14:13:07.198Z,1.00
2023-02-19T14:19:35.068Z,1.45
2023-02-19T14:25:40.520Z,1.73
2023-02-19T14:31:44.527Z,1.50
2023-02-19T14:37:46.653Z,1.35
2023-02-19T14:43:48.597Z,1.37
2023-02-19T14:49:54.706Z,1.40
2023-02-19T14:55:57.243Z,1.10
2023-02-19T15:02:03.093Z,0.95
2023-02-19T15:08:08.651Z,1.25
2023-02-19T15:14:16.759Z,1.00
2023-02-19T15:20:20.739Z,0.80
2023-02-19T15:26:23.520Z,0.90
2023-02-19T15:32:26.624Z,0.70
2023-02-19T15:38:28.595Z,0.82
2023-02-19T15:44:53.617Z,0.80
2023-02-19T15:50:59.443Z,1.73
2023-02-19T15:57:03.858Z,1.87
2023-02-19T16:03:06.092Z,4.10
2023-02-19T16:09:19.216Z,2.47
2023-02-19T16:15:20.778Z,2.43
2023-02-19T16:21:23.619Z,2.45
2023-02-19T16:27:29.590Z,2.03
2023-02-19T16:33:37.252Z,3.38
2023-02-19T16:39:38.686Z,2.42
2023-02-19T16:45:43.826Z,2.13
2023-02-19T16:51:46.270Z,1.73
2023-02-19T16:57:48.078Z,1.73
2023-02-19T17:03:50.198Z,1.95
2023-02-19T17:09:51.808Z,1.88
2023-02-19T17:15:53.961Z,2.83
2023-02-19T17:21:55.450Z,1.90
2023-02-19T17:27:57.019Z,1.80
2023-02-19T17:33:58.985Z,2.00
2023-02-19T17:40:00.497Z,1.83
2023-02-19T17:46:02.175Z,1.93
2023-02-19T17:52:04.531Z,4.03
2023-02-19T17:58:06.600Z,5.43
2023-02-19T18:04:08.095Z,3.70
2023-02-19T18:10:09.807Z,2.63
2023-02-19T18:16:11.639Z,3.20
2023-02-19T18:22:13.268Z,23.23
2023-02-19T18:28:15.135Z,18.13
2023-02-19T18:34:18.496Z,11.05
2023-02-19T18:40:21.101Z,6.43
2023-02-19T18:46:22.697Z,5.57
2023-02-19T18:52:25.627Z,5.20
2023-02-19T18:58:28.413Z,5.60
2023-02-19T19:04:30.014Z,6.15
2023-02-19T19:10:31.669Z,5.82
2023-02-19T19:16:33.222Z,5.23
2023-02-19T19:22:34.878Z,5.60
2023-02-19T19:28:38.214Z,6.50
2023-02-19T19:34:40.962Z,6.68
2023-02-19T19:40:42.732Z,7.10
2023-02-19T19:46:45.471Z,7.87
2023-02-19T19:52:47.049Z,8.75
2023-02-19T19:58:48.669Z,7.33
2023-02-19T20:04:50.277Z,6.97
2023-02-19T20:10:52.109Z,6.78
2023-02-19T20:16:54.973Z,7.10
2023-02-19T20:22:56.799Z,6.90
2023-02-19T20:28:58.400Z,6.53
2023-02-19T20:35:00.285Z,7.75
2023-02-19T20:41:02.283Z,7.18
2023-02-19T20:47:03.967Z,7.40
2023-02-19T20:53:05.610Z,8.35
2023-02-19T20:59:07.166Z,7.07
2023-02-19T21:05:09.764Z,7.70
2023-02-19T21:11:11.472Z,7.95
2023-02-19T21:17:13.115Z,6.90
2023-02-19T21:23:14.851Z,7.03
2023-02-19T21:29:18.892Z,6.70
2023-02-19T21:35:20.418Z,6.70
2023-02-19T21:41:21.874Z,6.70
2023-02-19T21:47:23.355Z,7.20
2023-02-19T21:53:24.845Z,7.47
2023-02-19T21:59:26.304Z,6.87
2023-02-19T22:05:27.792Z,6.20
2023-02-19T22:11:29.302Z,6.10
2023-02-19T22:17:30.753Z,5.40
2023-02-19T22:23:32.326Z,6.13
2023-02-19T22:29:34.109Z,6.23
2023-02-19T22:35:35.653Z,5.93
2023-02-19T22:41:41.644Z,5.50
2023-02-19T22:47:44.557Z,5.30
2023-02-19T22:53:46.882Z,5.22
2023-02-19T22:59:48.374Z,5.40
2023-02-19T23:05:50.018Z,4.97
2023-02-19T23:11:52.001Z,4.88
2023-02-19T23:17:53.474Z,5.03
2023-02-19T23:23:54.969Z,5.07
2023-02-19T23:29:57.139Z,4.57
2023-02-19T23:35:58.614Z,4.85
2023-02-19T23:42:00.217Z,4.72
2023-02-19T23:48:01.726Z,4.73
2023-02-19T23:54:03.458Z,4.13
